Time;durP1;ratioP1;P1;durP2;ratioP2;P2;SDS_P1;SDS_P2;PMS_P1;PMS_P2;Temp;Humidity;BMP_temperature;BMP_pressure;BME280_temperature;BME280_humidity;BME280_pressure;Samples;Min_cycle;Max_cycle;Signal;HPM_P1;HPM_P2
2022/11/07 00:03:00;;;;;;;21.00;11.77;;;5.20;43.60;;;;;;10370530;28;20323;-86
2022/11/07 00:08:30;;;;;;;19.47;11.27;;;5.20;51.50;;;;;;10358001;28;20203;-86
2022/11/07 00:13:56;;;;;;;22.60;11.50;;;5.20;46.20;;;;;;10344136;28;20212;-85
2022/11/07 00:19:20;;;;;;;19.00;11.03;;;5.20;41.30;;;;;;10343293;28;20419;-88
2022/11/07 00:24:44;;;;;;;21.37;11.47;;;5.10;40.90;;;;;;10319186;28;20203;-87
2022/11/07 00:30:07;;;;;;;22.90;11.77;;;5.10;51.50;;;;;;10316673;28;20200;-87
2022/11/07 00:35:30;;;;;;;21.57;11.53;;;5.20;74.40;;;;;;10322724;28;20234;-87
2022/11/07 00:40:55;;;;;;;26.33;11.53;;;5.20;82.40;;;;;;10324636;28;20199;-87
2022/11/07 00:46:19;;;;;;;24.97;11.83;;;5.10;74.00;;;;;;10329859;28;20203;-83
2022/11/07 00:51:42;;;;;;;21.90;11.53;;;5.10;77.20;;;;;;10342352;28;20205;-85
2022/11/07 00:57:05;;;;;;;22.87;11.37;;;5.10;91.30;;;;;;10355848;28;20419;-81
2022/11/07 01:02:28;;;;;;;24.77;12.77;;;5.10;97.20;;;;;;10350689;28;20287;-81
2022/11/07 01:07:51;;;;;;;21.83;13.53;;;5.10;96.40;;;;;;10315449;28;20205;-85
2022/11/07 01:13:15;;;;;;;23.23;14.27;;;;;;;;;;10300661;28;20294;-86
2022/11/07 01:18:39;;;;;;;20.37;12.50;;;;;;;;;;10315792;28;20233;-88
2022/11/07 01:24:03;;;;;;;19.77;12.63;;;;;;;;;;10321553;28;20205;-87
2022/11/07 01:29:28;;;;;;;26.17;12.77;;;5.30;53.20;;;;;;10301689;28;20204;-87
2022/11/07 01:34:52;;;;;;;22.87;14.03;;;5.10;82.90;;;;;;10321267;28;20219;-86
2022/11/07 01:40:15;;;;;;;24.53;13.40;;;5.10;94.80;;;;;;10324881;28;20397;-86
2022/11/07 01:45:38;;;;;;;22.50;13.63;;;5.10;99.90;;;;;;10300919;28;20204;-88
2022/11/07 01:51:02;;;;;;;22.80;13.23;;;5.10;99.90;;;;;;10301103;28;20224;-86
2022/11/07 01:56:28;;;;;;;21.27;13.33;;;5.10;99.90;;;;;;10328043;28;20247;-89
2022/11/07 02:01:52;;;;;;;26.13;13.33;;;5.10;99.90;;;;;;10320758;28;20197;-88
2022/11/07 02:07:19;;;;;;;28.00;14.10;;;5.10;99.90;;;;;;10302732;28;20572;-88
2022/11/07 02:12:43;;;;;;;28.40;15.47;;;5.20;99.90;;;;;;10311907;28;20242;-89
2022/11/07 02:18:06;;;;;;;24.57;14.03;;;5.20;99.90;;;;;;10327294;28;20271;-88
2022/11/07 02:23:39;;;;;;;25.73;13.93;;;5.20;99.90;;;;;;10341231;28;20203;-88
2022/11/07 02:29:06;;;;;;;22.87;13.70;;;5.10;99.90;;;;;;10361312;28;20399;-87
2022/11/07 02:34:30;;;;;;;22.37;14.47;;;5.20;99.90;;;;;;10356938;28;20502;-88
2022/11/07 02:39:55;;;;;;;29.70;15.47;;;5.30;99.90;;;;;;10390481;28;20220;-89
2022/11/07 02:45:25;;;;;;;31.73;16.53;;;5.20;99.90;;;;;;10360806;28;20199;-88
2022/11/07 02:50:48;;;;;;;23.80;15.43;;;5.30;99.90;;;;;;10347243;28;20215;-85
2022/11/07 02:56:11;;;;;;;29.47;16.43;;;5.30;99.90;;;;;;10352455;28;20224;-83
2022/11/07 03:01:35;;;;;;;31.47;17.87;;;5.30;99.90;;;;;;10359166;28;20193;-89
2022/11/07 03:06:58;;;;;;;28.63;17.50;;;5.30;99.90;;;;;;10330476;28;20244;-86
2022/11/07 03:12:21;;;;;;;33.77;18.27;;;5.30;99.90;;;;;;10306092;28;20316;-88
2022/11/07 03:17:45;;;;;;;33.87;19.50;;;5.20;99.90;;;;;;10329696;28;20484;-87
2022/11/07 03:23:09;;;;;;;29.87;17.17;;;5.20;99.90;;;;;;10362345;28;20504;-89
2022/11/07 03:28:32;;;;;;;28.13;17.63;;;5.20;99.90;;;;;;10291868;28;20429;-86
2022/11/07 03:33:55;;;;;;;26.83;15.27;;;5.20;99.90;;;;;;10338249;28;20235;-88
2022/11/07 03:39:19;;;;;;;29.17;16.00;;;5.20;99.90;;;;;;10348212;28;20590;-87
2022/11/07 03:44:45;;;;;;;31.60;17.60;;;5.20;99.90;;;;;;10304918;28;20200;-88
2022/11/07 03:50:15;;;;;;;30.87;17.73;;;5.10;99.90;;;;;;10305095;28;20492;-83
2022/11/07 03:55:41;;;;;;;27.70;17.93;;;5.20;99.90;;;;;;10347578;28;20252;-88
2022/11/07 04:01:04;;;;;;;30.03;18.37;;;5.20;99.90;;;;;;10344404;28;20203;-86
2022/11/07 04:06:28;;;;;;;39.03;19.40;;;5.20;99.90;;;;;;10320197;28;20209;-88
2022/11/07 04:17:37;;;;;;;39.40;21.20;;;5.20;99.90;;;;;;10362320;28;20236;-81
2022/11/07 04:23:00;;;;;;;30.73;20.47;;;5.10;99.90;;;;;;10359204;28;20189;-85
2022/11/07 04:28:23;;;;;;;34.20;20.37;;;5.10;99.90;;;;;;10315123;28;20205;-88
2022/11/07 04:33:47;;;;;;;39.37;24.03;;;5.20;99.90;;;;;;10334368;28;20203;-85
2022/11/07 04:39:12;;;;;;;33.13;21.33;;;5.10;99.90;;;;;;10343007;28;20270;-87
2022/11/07 04:44:35;;;;;;;31.57;19.10;;;5.10;99.90;;;;;;10329341;28;20199;-88
2022/11/07 04:49:59;;;;;;;37.73;21.07;;;5.20;99.90;;;;;;10355750;28;20205;-84
2022/11/07 04:55:25;;;;;;;37.00;21.20;;;5.30;99.90;;;;;;10354646;28;20222;-85
2022/11/07 05:00:48;;;;;;;34.03;21.00;;;5.20;99.90;;;;;;10342152;28;20207;-84
2022/11/07 05:06:13;;;;;;;40.20;23.60;;;5.30;99.90;;;;;;10330904;28;20480;-83
2022/11/07 05:11:36;;;;;;;39.17;23.47;;;5.30;99.90;;;;;;10317039;28;20247;-84
2022/11/07 05:17:00;;;;;;;35.07;21.47;;;5.30;99.90;;;;;;10341100;28;20308;-84
2022/11/07 05:28:14;;;;;;;39.40;23.90;;;5.40;99.90;;;;;;10301352;28;20224;-84
2022/11/07 05:33:38;;;;;;;41.20;25.80;;;5.40;99.90;;;;;;10341694;28;20513;-89
2022/11/07 05:39:01;;;;;;;43.87;24.23;;;5.40;99.90;;;;;;10346122;28;20233;-83
2022/11/07 05:44:26;;;;;;;43.87;26.00;;;5.40;99.90;;;;;;10301916;28;20228;-87
2022/11/07 05:49:52;;;;;;;54.93;27.13;;;5.50;99.90;;;;;;10335014;28;20200;-82
2022/11/07 05:55:15;;;;;;;60.40;30.30;;;5.50;99.90;;;;;;10318154;28;20361;-89
2022/11/07 06:00:41;;;;;;;47.60;28.90;;;5.50;99.90;;;;;;10318502;28;20204;-81
2022/11/07 06:06:04;;;;;;;51.43;31.87;;;5.50;99.90;;;;;;10347389;28;20280;-88
2022/11/07 06:11:28;;;;;;;57.03;33.03;;;5.60;99.90;;;;;;10309502;28;20288;-92
2022/11/07 06:16:51;;;;;;;55.47;32.70;;;5.60;99.90;;;;;;10313690;28;20256;-85
2022/11/07 06:22:14;;;;;;;57.43;34.90;;;5.60;99.90;;;;;;10323834;28;20191;-86
2022/11/07 06:27:40;;;;;;;54.57;30.30;;;5.60;99.90;;;;;;10348266;28;20280;-87
2022/11/07 06:33:15;;;;;;;55.73;32.50;;;5.60;99.90;;;;;;10347729;28;20271;-86
2022/11/07 06:38:39;;;;;;;58.77;34.63;;;5.70;99.90;;;;;;10329946;28;20225;-86
2022/11/07 06:44:02;;;;;;;67.87;36.83;;;5.70;99.90;;;;;;10307476;28;20504;-86
2022/11/07 06:49:26;;;;;;;47.63;31.53;;;5.80;99.90;;;;;;10309175;28;20204;-91
2022/11/07 06:54:49;;;;;;;46.93;28.60;;;5.90;99.90;;;;;;10307356;28;20215;-89
2022/11/07 07:00:13;;;;;;;48.23;29.03;;;5.90;99.90;;;;;;10340162;28;20224;-87
2022/11/07 07:05:37;;;;;;;69.07;38.37;;;5.90;92.20;;;;;;10360385;28;20485;-89
2022/11/07 07:11:05;;;;;;;77.00;43.40;;;5.90;74.50;;;;;;10374705;28;20236;-86
2022/11/07 07:16:28;;;;;;;57.00;33.10;;;5.90;63.60;;;;;;10345511;28;20233;-91
2022/11/07 07:21:52;;;;;;;56.20;32.00;;;5.90;81.10;;;;;;10336636;28;20230;-86
2022/11/07 07:27:16;;;;;;;49.67;32.17;;;6.00;86.00;;;;;;10349698;28;20287;-91
2022/11/07 07:32:39;;;;;;;59.23;32.67;;;6.10;49.00;;;;;;10347543;28;20248;-91
2022/11/07 07:38:03;;;;;;;53.97;32.60;;;6.00;36.70;;;;;;10347059;28;20235;-89
2022/11/07 07:43:28;;;;;;;61.97;34.37;;;5.80;31.70;;;;;;10347621;28;20196;-92
2022/11/07 07:48:52;;;;;;;60.13;32.73;;;5.90;49.90;;;;;;10346014;28;20221;-86
2022/11/07 07:54:18;;;;;;;44.40;26.70;;;5.90;55.80;;;;;;10347529;28;20243;-90
2022/11/07 07:59:41;;;;;;;49.73;30.07;;;5.90;47.90;;;;;;10306029;28;20225;-93
2022/11/07 08:05:05;;;;;;;54.87;32.87;;;6.00;44.90;;;;;;10345766;28;20207;-87
2022/11/07 08:10:26;;;;;;;46.63;29.57;;;6.10;31.40;;;;;;10303493;28;20573;-93
2022/11/07 08:16:03;;;;;;;51.50;30.33;;;6.30;37.40;;;;;;10343713;28;20216;-83
2022/11/07 08:21:24;;;;;;;42.20;26.67;;;6.40;12.80;;;;;;10343573;28;20200;-88
2022/11/07 08:26:45;;;;;;;45.60;29.00;;;6.50;5.20;;;;;;10330167;28;20227;-83
2022/11/07 08:32:07;;;;;;;48.17;28.73;;;6.70;1.00;;;;;;10350407;28;20208;-81
2022/11/07 08:37:29;;;;;;;46.57;26.17;;;6.80;1.00;;;;;;10362575;28;20236;-88
2022/11/07 08:42:50;;;;;;;44.50;26.13;;;6.60;1.00;;;;;;10336952;28;20206;-81
2022/11/07 08:48:12;;;;;;;60.80;34.43;;;6.70;1.00;;;;;;10335632;28;20539;-80
2022/11/07 08:53:33;;;;;;;42.77;28.13;;;6.70;1.00;;;;;;10323859;28;20467;-80
2022/11/07 08:58:55;;;;;;;59.30;33.27;;;7.10;1.00;;;;;;10323670;28;20231;-80
2022/11/07 09:04:16;;;;;;;49.60;27.63;;;7.50;1.00;;;;;;10364424;28;20193;-83
2022/11/07 09:09:37;;;;;;;36.60;23.63;;;7.80;1.00;;;;;;10367688;28;20319;-81
2022/11/07 09:14:58;;;;;;;40.20;25.13;;;7.90;1.00;;;;;;10403030;28;20201;-80
2022/11/07 09:20:20;;;;;;;37.40;25.10;;;7.90;1.00;;;;;;10364813;28;20312;-83
2022/11/07 09:25:41;;;;;;;36.57;22.20;;;8.20;99.90;;;;;;10371722;28;20440;-83
2022/11/07 09:31:04;;;;;;;41.97;22.63;;;8.40;99.90;;;;;;10324333;28;20223;-87
2022/11/07 09:36:25;;;;;;;29.83;19.97;;;8.40;68.90;;;;;;10355917;28;20209;-86
2022/11/07 09:42:18;;;;;;;36.83;21.30;;;8.60;1.00;;;;;;10314981;28;20546;-86
2022/11/07 09:47:44;;;;;;;40.70;23.03;;;8.60;1.00;;;;;;10317602;28;20426;-86
2022/11/07 09:53:27;;;;;;;32.77;20.20;;;8.70;1.00;;;;;;10303431;28;20212;-90
2022/11/07 09:58:56;;;;;;;33.37;22.67;;;8.90;99.90;;;;;;10340200;28;20268;-86
2022/11/07 10:04:20;;;;;;;36.77;22.17;;;8.80;1.00;;;;;;10334849;28;20419;-92
2022/11/07 10:09:56;;;;;;;37.03;21.87;;;8.80;1.00;;;;;;10332405;28;20417;-93
2022/11/07 10:15:26;;;;;;;34.93;20.43;;;9.10;1.00;;;;;;10292113;28;20260;-90
2022/11/07 10:21:28;;;;;;;31.10;20.03;;;9.30;1.00;;;;;;10292029;28;20193;-85
2022/11/07 10:26:57;;;;;;;34.37;22.20;;;9.30;69.60;;;;;;10303978;28;20227;-85
2022/11/07 10:32:43;;;;;;;31.87;18.80;;;9.30;85.20;;;;;;10302694;28;20208;-93
2022/11/07 10:38:28;;;;;;;29.93;18.47;;;9.10;99.90;;;;;;10352853;28;20250;-88
2022/11/07 10:43:55;;;;;;;35.67;20.33;;;9.10;1.00;;;;;;10318161;28;20265;-91
2022/11/07 10:49:20;;;;;;;31.43;17.83;;;9.10;1.00;;;;;;10305336;28;20745;-85
2022/11/07 10:54:43;;;;;;;27.43;16.43;;;9.10;1.00;;;;;;10303729;28;20194;-89
2022/11/07 11:00:21;;;;;;;27.60;17.03;;;9.10;1.00;;;;;;10315051;28;20238;-87
2022/11/07 11:05:47;;;;;;;46.40;20.50;;;9.10;99.90;;;;;;10335332;28;20281;-84
2022/11/07 11:11:20;;;;;;;89.27;34.10;;;9.10;94.20;;;;;;10318900;28;20284;-85
2022/11/07 11:16:42;;;;;;;34.50;16.20;;;9.20;1.00;;;;;;10354320;28;20222;-85
2022/11/07 11:22:14;;;;;;;26.83;14.40;;;9.30;1.00;;;;;;10341790;28;20199;-88
2022/11/07 11:27:37;;;;;;;22.63;14.00;;;9.70;1.00;;;;;;10341789;28;20220;-84
2022/11/07 11:33:23;;;;;;;19.40;12.53;;;9.80;1.00;;;;;;10317758;28;20207;-84
2022/11/07 11:38:53;;;;;;;32.50;18.33;;;9.80;1.00;;;;;;10322090;28;20228;-84
2022/11/07 11:44:23;;;;;;;24.80;13.97;;;10.20;99.90;;;;;;10313313;28;20195;-82
2022/11/07 11:50:01;;;;;;;22.10;12.43;;;10.30;1.00;;;;;;10300038;28;20200;-84
2022/11/07 11:55:27;;;;;;;29.90;13.73;;;10.10;99.90;;;;;;10298753;28;20195;-85
2022/11/07 12:01:20;;;;;;;33.73;15.53;;;9.90;1.00;;;;;;10309442;28;20277;-89
2022/11/07 12:06:45;;;;;;;18.93;12.17;;;9.80;99.90;;;;;;10277947;28;20211;-82
2022/11/07 12:12:17;;;;;;;25.60;12.67;;;9.80;1.00;;;;;;10293127;28;20233;-85
2022/11/07 12:18:12;;;;;;;21.70;11.87;;;9.80;1.00;;;;;;10254539;29;20257;-86
2022/11/07 12:24:12;;;;;;;40.30;21.77;;;9.90;99.90;;;;;;10260886;29;20200;-84
2022/11/07 12:30:03;;;;;;;18.07;11.57;;;9.90;99.90;;;;;;10272450;28;20542;-87
2022/11/07 12:35:49;;;;;;;18.80;10.43;;;9.80;1.00;;;;;;10314954;28;20448;-86
2022/11/07 12:41:41;;;;;;;18.87;10.93;;;9.70;1.00;;;;;;10282259;28;20220;-86
2022/11/07 12:47:34;;;;;;;18.60;9.90;;;10.00;99.90;;;;;;10312070;28;20284;-85
2022/11/07 12:53:09;;;;;;;13.37;9.93;;;10.00;1.00;;;;;;10311453;28;20208;-85
2022/11/07 12:58:33;;;;;;;17.20;10.97;;;10.10;99.90;;;;;;10342415;28;20596;-85
2022/11/07 13:04:20;;;;;;;68.50;34.60;;;10.20;1.00;;;;;;10324322;28;20209;-92
2022/11/07 13:10:14;;;;;;;20.47;10.97;;;10.20;99.90;;;;;;10335434;28;20236;-87
2022/11/07 13:15:37;;;;;;;15.27;7.67;;;10.10;1.00;;;;;;10326820;28;20196;-82
2022/11/07 13:21:15;;;;;;;16.03;8.27;;;10.20;96.10;;;;;;10345071;28;20212;-83
2022/11/07 13:26:36;;;;;;;13.17;6.83;;;10.10;99.90;;;;;;10356025;28;20250;-85
2022/11/07 13:32:14;;;;;;;14.83;8.27;;;10.00;1.00;;;;;;10333160;28;20279;-83
2022/11/07 13:37:39;;;;;;;19.83;11.33;;;10.00;1.00;;;;;;10341100;28;20232;-83
2022/11/07 13:43:13;;;;;;;21.00;12.60;;;10.00;1.00;;;;;;10341368;28;20200;-83
2022/11/07 13:49:13;;;;;;;13.70;8.60;;;10.00;1.00;;;;;;10322939;28;20226;-88
2022/11/07 13:54:42;;;;;;;15.53;8.20;;;10.00;1.00;;;;;;10367129;28;20263;-88
2022/11/07 14:00:13;;;;;;;15.87;8.90;;;9.90;1.00;;;;;;10325392;28;20255;-85
2022/11/07 14:05:36;;;;;;;15.97;9.10;;;9.90;99.90;;;;;;10323051;28;20199;-95
2022/11/07 14:10:58;;;;;;;19.33;10.03;;;9.80;99.90;;;;;;10324948;28;20227;-91
2022/11/07 14:16:21;;;;;;;18.67;11.80;;;9.80;99.90;;;;;;10308248;28;20201;-91
2022/11/07 14:21:45;;;;;;;22.10;10.93;;;9.70;1.00;;;;;;10335188;28;20488;-91
2022/11/07 14:27:13;;;;;;;20.57;10.43;;;9.60;1.00;;;;;;10338466;28;20210;-85
2022/11/07 14:32:34;;;;;;;19.57;12.10;;;9.50;1.00;;;;;;10332873;28;20211;-85
2022/11/07 14:38:08;;;;;;;23.90;14.27;;;9.50;1.00;;;;;;10327239;28;20413;-95
2022/11/07 14:43:34;;;;;;;34.43;17.23;;;9.40;1.00;;;;;;10352717;28;20226;-93
2022/11/07 14:49:12;;;;;;;40.67;21.93;;;9.20;1.00;;;;;;10346331;28;20520;-87
2022/11/07 14:54:40;;;;;;;87.77;48.83;;;9.10;1.00;;;;;;10369120;28;20199;-83
2022/11/07 15:00:14;;;;;;;43.70;25.73;;;9.10;1.00;;;;;;10348552;28;20239;-90
2022/11/07 15:05:36;;;;;;;28.87;15.80;;;8.90;1.00;;;;;;10383228;28;20218;-91
2022/11/07 15:11:24;;;;;;;40.50;20.27;;;8.80;1.00;;;;;;10354148;28;20238;-84
2022/11/07 15:16:49;;;;;;;38.33;21.30;;;8.80;1.00;;;;;;10360233;28;20470;-92
2022/11/07 15:22:29;;;;;;;31.00;18.17;;;8.80;1.00;;;;;;10358568;28;20195;-84
2022/11/07 15:27:50;;;;;;;30.07;15.73;;;8.80;1.00;;;;;;10336868;28;20215;-84
2022/11/07 15:33:12;;;;;;;58.67;25.17;;;8.70;1.00;;;;;;10309349;28;20203;-85
2022/11/07 15:38:34;;;;;;;63.77;27.90;;;8.60;2.40;;;;;;10359307;28;20443;-85
2022/11/07 15:43:57;;;;;;;46.40;22.43;;;8.60;8.50;;;;;;10370971;28;20232;-86
2022/11/07 15:49:19;;;;;;;25.47;15.47;;;8.60;13.70;;;;;;10327023;28;20519;-85
2022/11/07 15:54:41;;;;;;;32.27;17.27;;;8.70;7.50;;;;;;10331378;28;20216;-85
2022/11/07 16:00:04;;;;;;;32.93;16.27;;;8.60;11.10;;;;;;10345092;28;20238;-86
2022/11/07 16:05:32;;;;;;;27.07;14.70;;;8.70;15.60;;;;;;10359676;28;20207;-83
2022/11/07 16:10:59;;;;;;;20.10;11.97;;;8.60;20.70;;;;;;10328965;28;20260;-83
2022/11/07 16:16:25;;;;;;;28.10;15.77;;;8.70;18.30;;;;;;10344821;28;20228;-82
2022/11/07 16:21:49;;;;;;;21.63;14.03;;;8.70;20.30;;;;;;10344415;28;20373;-83
2022/11/07 16:27:14;;;;;;;21.07;14.03;;;8.70;22.30;;;;;;10357102;28;20379;-82
2022/11/07 16:32:35;;;;;;;25.87;15.50;;;8.70;21.80;;;;;;10341979;28;20445;-83
2022/11/07 16:37:58;;;;;;;22.60;14.23;;;8.70;18.70;;;;;;10336149;28;20234;-82
2022/11/07 16:43:19;;;;;;;27.83;16.43;;;8.70;22.00;;;;;;10333060;28;20436;-83
2022/11/07 16:48:41;;;;;;;22.37;14.47;;;8.70;22.90;;;;;;10330276;28;20205;-82
2022/11/07 16:54:02;;;;;;;20.80;11.63;;;8.70;25.20;;;;;;10345465;28;20203;-83
2022/11/07 16:59:24;;;;;;;28.90;14.50;;;8.80;16.40;;;;;;10345040;28;20228;-83
2022/11/07 17:04:46;;;;;;;33.20;19.33;;;8.80;11.10;;;;;;10344837;28;20199;-83
2022/11/07 17:10:12;;;;;;;23.47;14.07;;;8.80;8.50;;;;;;10343975;28;20237;-82
2022/11/07 17:15:33;;;;;;;19.60;11.90;;;8.80;11.70;;;;;;10342826;28;20199;-83
2022/11/07 17:20:55;;;;;;;18.10;10.07;;;8.80;2.20;;;;;;10358052;28;20218;-83
2022/11/07 17:26:23;;;;;;;22.07;12.87;;;8.80;1.00;;;;;;10327934;28;20204;-83
2022/11/07 17:31:44;;;;;;;31.63;12.97;;;8.80;2.80;;;;;;10340419;28;20202;-83
2022/11/07 17:37:08;;;;;;;21.87;11.97;;;8.90;1.00;;;;;;10341328;28;20384;-83
2022/11/07 17:42:29;;;;;;;41.33;18.20;;;8.90;1.00;;;;;;10357143;28;20195;-83
2022/11/07 17:47:52;;;;;;;57.97;27.03;;;9.00;1.00;;;;;;10347977;28;20505;-82
2022/11/07 17:53:14;;;;;;;41.87;19.37;;;9.00;1.00;;;;;;10373788;28;20233;-83
2022/11/07 17:58:35;;;;;;;31.93;15.20;;;8.90;1.00;;;;;;10351910;28;20237;-82
2022/11/07 18:03:57;;;;;;;34.33;14.37;;;9.00;1.00;;;;;;10337332;28;20203;-82
2022/11/07 18:09:18;;;;;;;25.00;11.73;;;9.00;1.00;;;;;;10365434;28;20233;-83
2022/11/07 18:14:39;;;;;;;39.03;16.90;;;9.00;1.00;;;;;;10343386;28;20198;-83
2022/11/07 18:20:02;;;;;;;29.20;12.30;;;9.00;1.00;;;;;;10324679;28;20602;-82
2022/11/07 18:25:24;;;;;;;22.60;10.90;;;9.10;1.00;;;;;;10310794;28;20199;-83
2022/11/07 18:30:46;;;;;;;18.60;9.17;;;9.10;1.00;;;;;;10309505;28;20208;-83
2022/11/07 18:36:10;;;;;;;14.37;8.20;;;9.10;1.00;;;;;;10309660;28;20241;-83
2022/11/07 18:41:32;;;;;;;17.30;9.20;;;9.20;1.00;;;;;;10335328;28;20228;-83
2022/11/07 18:46:53;;;;;;;17.00;9.93;;;9.20;1.00;;;;;;10335102;28;20520;-82
2022/11/07 18:52:15;;;;;;;16.97;10.07;;;9.10;6.90;;;;;;10348181;28;20218;-80
2022/11/07 18:57:36;;;;;;;22.00;10.30;;;9.10;10.80;;;;;;10348243;28;20237;-83
2022/11/07 19:02:58;;;;;;;14.80;9.13;;;9.10;8.80;;;;;;10360171;28;20247;-83
2022/11/07 19:08:20;;;;;;;18.23;10.43;;;9.10;12.60;;;;;;10309463;28;20593;-83
2022/11/07 19:13:46;;;;;;;24.53;14.47;;;9.10;18.80;;;;;;10354376;28;20209;-83
2022/11/07 19:19:07;;;;;;;25.47;13.53;;;9.10;18.30;;;;;;10347995;28;20526;-83
2022/11/07 19:24:29;;;;;;;39.37;20.13;;;9.10;20.50;;;;;;10333698;28;20198;-83
2022/11/07 19:29:50;;;;;;;26.93;13.20;;;9.10;22.30;;;;;;10346981;28;20224;-83
2022/11/07 19:35:11;;;;;;;22.37;13.00;;;9.10;23.20;;;;;;10347904;28;20570;-83
2022/11/07 19:40:34;;;;;;;21.03;11.83;;;9.20;27.30;;;;;;10348961;28;20243;-80
2022/11/07 19:45:56;;;;;;;23.87;14.27;;;9.20;24.00;;;;;;10348206;28;20204;-82
2022/11/07 19:51:20;;;;;;;23.50;11.33;;;9.20;29.10;;;;;;10334273;28;20209;-83
2022/11/07 19:56:41;;;;;;;24.27;11.60;;;9.10;30.10;;;;;;10348339;28;20203;-80
2022/11/07 20:02:03;;;;;;;24.17;11.47;;;9.10;29.00;;;;;;10347645;28;20234;-80
2022/11/07 20:07:45;;;;;;;26.60;13.53;;;9.10;38.80;;;;;;10351319;28;20497;-82
2022/11/07 20:13:07;;;;;;;25.63;13.20;;;9.00;46.00;;;;;;10360996;28;20306;-80
2022/11/07 20:18:29;;;;;;;26.33;12.47;;;9.00;53.00;;;;;;10332416;28;20241;-83
2022/11/07 20:23:55;;;;;;;22.90;11.53;;;9.10;51.30;;;;;;10345974;28;20196;-83
2022/11/07 20:29:17;;;;;;;17.27;9.87;;;9.00;58.70;;;;;;10359614;28;20495;-83
2022/11/07 20:34:39;;;;;;;22.17;12.60;;;8.90;71.70;;;;;;10346780;28;20222;-82
2022/11/07 20:40:00;;;;;;;20.47;11.80;;;8.90;83.10;;;;;;10332682;28;20232;-82
2022/11/07 20:45:21;;;;;;;20.13;11.67;;;8.90;94.90;;;;;;10360466;28;20191;-82
2022/11/07 20:50:43;;;;;;;24.20;12.50;;;8.90;99.90;;;;;;10331884;28;20254;-82
2022/11/07 20:56:05;;;;;;;17.70;11.17;;;8.90;99.90;;;;;;10332619;28;20198;-82
2022/11/07 21:01:35;;;;;;;19.83;11.63;;;8.80;99.90;;;;;;10345134;28;20236;-82
2022/11/07 21:06:57;;;;;;;17.00;10.50;;;8.80;99.90;;;;;;10306901;28;20203;-82
2022/11/07 21:12:18;;;;;;;33.97;15.70;;;8.70;99.90;;;;;;10325425;28;20231;-82
2022/11/07 21:17:40;;;;;;;28.00;13.87;;;8.70;99.90;;;;;;10343329;28;20266;-82
2022/11/07 21:23:02;;;;;;;29.80;13.50;;;8.70;99.90;;;;;;10343244;28;20583;-82
2022/11/07 21:28:25;;;;;;;23.20;11.87;;;8.70;99.90;;;;;;10343680;28;20212;-83
2022/11/07 21:33:46;;;;;;;21.43;11.80;;;8.70;99.90;;;;;;10343632;28;20201;-83
2022/11/07 21:39:07;;;;;;;26.80;13.37;;;8.70;99.90;;;;;;10357670;28;20569;-82
2022/11/07 21:44:30;;;;;;;23.57;13.80;;;8.70;99.90;;;;;;10343661;28;20210;-82
2022/11/07 21:49:51;;;;;;;26.83;14.07;;;8.70;99.90;;;;;;10342413;28;20221;-82
2022/11/07 21:55:12;;;;;;;15.80;9.90;;;8.80;99.90;;;;;;10344080;28;20222;-82
2022/11/07 22:00:34;;;;;;;18.33;10.60;;;8.80;99.90;;;;;;10344558;28;20252;-82
2022/11/07 22:05:56;;;;;;;18.90;10.23;;;8.80;99.90;;;;;;10342260;28;20208;-82
2022/11/07 22:11:18;;;;;;;14.60;9.87;;;8.80;99.90;;;;;;10341430;28;20335;-81
2022/11/07 22:16:39;;;;;;;13.87;8.43;;;8.70;99.90;;;;;;10354666;28;20194;-82
2022/11/07 22:22:01;;;;;;;17.47;8.93;;;8.70;99.90;;;;;;10354579;28;20232;-81
2022/11/07 22:27:22;;;;;;;16.63;8.67;;;8.70;99.90;;;;;;10355231;28;20195;-83
2022/11/07 22:32:43;;;;;;;15.97;8.63;;;8.70;99.90;;;;;;10377370;28;20203;-82
2022/11/07 22:38:05;;;;;;;15.67;8.57;;;8.70;99.90;;;;;;10391000;28;20222;-82
2022/11/07 22:43:29;;;;;;;24.10;9.13;;;8.70;99.90;;;;;;10319602;28;20254;-82
2022/11/07 22:48:52;;;;;;;12.63;7.13;;;8.80;99.90;;;;;;10322171;28;20196;-82
2022/11/07 22:54:13;;;;;;;13.70;7.13;;;8.80;99.90;;;;;;10359180;28;20202;-82
2022/11/07 22:59:34;;;;;;;25.40;10.90;;;8.90;99.90;;;;;;10347244;28;20464;-82
2022/11/07 23:04:55;;;;;;;19.47;7.13;;;9.00;99.90;;;;;;10360389;28;20279;-82
2022/11/07 23:10:18;;;;;;;9.63;4.47;;;9.10;99.90;;;;;;10365940;28;20272;-82
2022/11/07 23:15:39;;;;;;;12.10;5.10;;;9.20;99.90;;;;;;10359980;28;20205;-82
2022/11/07 23:21:09;;;;;;;10.70;5.20;;;9.20;99.90;;;;;;10347355;28;20234;-82
2022/11/07 23:26:35;;;;;;;12.37;5.23;;;9.20;99.90;;;;;;10361727;28;20207;-82
2022/11/07 23:31:56;;;;;;;13.17;4.97;;;9.30;99.90;;;;;;10348094;28;20200;-82
2022/11/07 23:37:17;;;;;;;11.50;5.37;;;9.30;99.90;;;;;;10360097;28;20230;-82
2022/11/07 23:42:39;;;;;;;10.87;5.23;;;9.20;99.90;;;;;;10310493;28;20201;-82
